createdAt,value
2023-06-26T00:01:58.588Z,100590.40
2023-06-26T00:07:01.600Z,100591.83
2023-06-26T00:12:05.038Z,100591.05
2023-06-26T00:17:08.020Z,100590.25
2023-06-26T00:22:11.034Z,100590.60
2023-06-26T00:27:14.030Z,100589.74
2023-06-26T00:32:17.281Z,100590.98
2023-06-26T00:37:20.232Z,100589.49
2023-06-26T00:42:23.181Z,100590.35
2023-06-26T00:47:26.778Z,100591.98
2023-06-26T00:52:29.891Z,100589.81
2023-06-26T00:57:35.546Z,100586.90
2023-06-26T01:02:40.129Z,100581.35
2023-06-26T01:07:46.171Z,100585.02
2023-06-26T01:12:49.077Z,100576.66
2023-06-26T01:17:52.252Z,100573.75
2023-06-26T01:23:16.038Z,100573.79
2023-06-26T01:28:19.039Z,100566.77
2023-06-26T01:33:22.021Z,100565.73
2023-06-26T01:38:24.936Z,100565.99
2023-06-26T01:43:49.348Z,100562.39
2023-06-26T01:49:04.634Z,100560.55
2023-06-26T01:54:10.897Z,100555.09
2023-06-26T01:59:16.740Z,100554.55
2023-06-26T02:04:20.136Z,100549.02
2023-06-26T02:09:23.240Z,100542.25
2023-06-26T02:14:26.204Z,100545.52
2023-06-26T02:19:29.056Z,100543.71
2023-06-26T02:24:32.085Z,100543.63
2023-06-26T02:29:34.977Z,100541.05
2023-06-26T02:34:39.412Z,100540.41
2023-06-26T02:39:45.333Z,100534.30
2023-06-26T02:44:48.260Z,100533.27
2023-06-26T02:49:51.236Z,100532.90
2023-06-26T02:54:54.206Z,100540.75
2023-06-26T02:59:57.135Z,100542.77
2023-06-26T03:05:00.064Z,100546.46
2023-06-26T03:10:03.068Z,100539.94
2023-06-26T03:15:06.707Z,100542.97
2023-06-26T03:20:10.479Z,100540.78
2023-06-26T03:25:13.521Z,100539.36
2023-06-26T03:30:16.893Z,100540.47
2023-06-26T03:35:20.077Z,100536.92
2023-06-26T03:40:24.570Z,100538.25
2023-06-26T03:45:27.840Z,100543.09
2023-06-26T03:50:30.872Z,100542.67
2023-06-26T03:55:33.754Z,100538.47
2023-06-26T04:00:36.729Z,100541.09
2023-06-26T04:05:39.903Z,100537.79
2023-06-26T04:10:43.220Z,100534.14
2023-06-26T04:15:47.716Z,100538.71
2023-06-26T04:21:13.633Z,100544.59
2023-06-26T04:26:16.666Z,100545.70
2023-06-26T04:31:19.727Z,100547.19
2023-06-26T04:36:22.882Z,100549.05
2023-06-26T04:41:26.409Z,100544.79
2023-06-26T04:46:29.475Z,100545.69
2023-06-26T04:51:32.956Z,100542.75
2023-06-26T04:56:36.480Z,100544.85
2023-06-26T05:01:40.812Z,100545.32
2023-06-26T05:06:43.955Z,100546.84
2023-06-26T05:11:46.846Z,100547.48
2023-06-26T05:16:49.815Z,100545.56
2023-06-26T05:21:52.717Z,100540.86
2023-06-26T05:27:11.931Z,100542.91
2023-06-26T05:32:18.930Z,100543.36
2023-06-26T05:37:25.325Z,100542.02
2023-06-26T05:42:29.374Z,100540.52
2023-06-26T05:47:32.524Z,100539.83
2023-06-26T05:52:36.409Z,100538.48
2023-06-26T05:57:41.895Z,100538.23
2023-06-26T06:02:44.939Z,100533.09
2023-06-26T06:07:49.561Z,100530.10
2023-06-26T06:12:53.350Z,100530.39
2023-06-26T06:17:58.383Z,100523.15
2023-06-26T06:23:04.523Z,100521.67
2023-06-26T06:28:07.438Z,100519.98
2023-06-26T06:33:10.337Z,100515.88
2023-06-26T06:38:13.243Z,100512.66
2023-06-26T06:43:16.683Z,100513.52
2023-06-26T06:48:23.707Z,100511.89
2023-06-26T06:53:26.899Z,100509.79
2023-06-26T06:58:35.152Z,100504.64
2023-06-26T07:03:39.452Z,100509.75
2023-06-26T07:08:42.549Z,100506.84
2023-06-26T07:13:48.432Z,100501.44
2023-06-26T07:18:53.327Z,100502.44
2023-06-26T07:23:57.711Z,100495.59
2023-06-26T07:29:01.517Z,100494.88
2023-06-26T07:34:04.404Z,100497.83
2023-06-26T07:39:07.441Z,100491.82
2023-06-26T07:44:10.652Z,100492.91
2023-06-26T07:49:13.652Z,100488.80
2023-06-26T07:54:17.744Z,100491.96
2023-06-26T07:59:22.114Z,100494.14
2023-06-26T08:04:27.297Z,100493.13
2023-06-26T08:09:31.112Z,100490.81
2023-06-26T08:14:35.040Z,100493.05
2023-06-26T08:19:41.525Z,100494.25
2023-06-26T08:24:44.797Z,100491.05
2023-06-26T08:29:47.824Z,100484.31
2023-06-26T08:34:51.887Z,100480.81
2023-06-26T08:39:55.211Z,100477.75
2023-06-26T08:45:02.210Z,100481.19
2023-06-26T08:50:11.846Z,100475.23
2023-06-26T08:55:15.488Z,100468.17
2023-06-26T09:00:19.156Z,100468.78
2023-06-26T09:05:22.139Z,100471.98
2023-06-26T09:10:25.633Z,100466.64
2023-06-26T09:15:44.281Z,100462.45
2023-06-26T09:20:49.543Z,100455.54
2023-06-26T09:25:52.881Z,100457.85
2023-06-26T09:31:09.442Z,100456.17
2023-06-26T09:36:36.354Z,100449.77
2023-06-26T09:41:47.827Z,100453.67
2023-06-26T09:46:50.900Z,100450.86
2023-06-26T09:51:55.307Z,100447.61
2023-06-26T09:57:14.574Z,100444.66
2023-06-26T10:02:19.293Z,100437.05
2023-06-26T10:07:24.538Z,100439.19
2023-06-26T10:12:34.967Z,100430.95
2023-06-26T10:17:37.999Z,100427.35
2023-06-26T10:22:47.514Z,100423.44
2023-06-26T10:28:01.368Z,100420.69
2023-06-26T10:33:08.428Z,100416.39
2023-06-26T10:39:13.378Z,100404.01
2023-06-26T10:44:22.106Z,100401.51
2023-06-26T10:49:30.749Z,100396.45
2023-06-26T10:54:36.584Z,100395.27
2023-06-26T10:59:41.051Z,100395.08
2023-06-26T11:04:55.720Z,100390.97
2023-06-26T11:10:01.036Z,100386.41
2023-06-26T11:15:18.299Z,100381.27
2023-06-26T11:20:21.316Z,100380.83
2023-06-26T11:25:36.164Z,100377.41
2023-06-26T11:30:42.419Z,100374.40
2023-06-26T11:35:49.588Z,100368.90
2023-06-26T11:40:55.060Z,100365.17
2023-06-26T11:46:05.234Z,100365.78
2023-06-26T11:51:31.540Z,100361.52
2023-06-26T11:56:36.963Z,100360.11
2023-06-26T12:01:42.134Z,100352.77
2023-06-26T12:06:49.713Z,100353.84
2023-06-26T12:11:56.427Z,100346.85
2023-06-26T12:17:15.221Z,100343.05
2023-06-26T12:22:22.159Z,100337.59
2023-06-26T12:27:25.115Z,100336.78
2023-06-26T12:32:28.417Z,100334.15
2023-06-26T12:37:31.877Z,100330.36
2023-06-26T12:42:36.396Z,100327.29
2023-06-26T12:47:39.766Z,100326.11
2023-06-26T12:52:42.629Z,100319.48
2023-06-26T12:57:45.659Z,100315.16
2023-06-26T13:02:49.783Z,100311.02
2023-06-26T13:07:56.413Z,100303.04
2023-06-26T13:12:59.294Z,100296.08
2023-06-26T13:18:02.327Z,100291.08
2023-06-26T13:23:06.587Z,100289.80
2023-06-26T13:28:13.616Z,100281.06
2023-06-26T13:33:17.129Z,100280.67
2023-06-26T13:38:25.560Z,100275.90
2023-06-26T13:43:29.869Z,100276.77
2023-06-26T13:48:40.228Z,100266.11
2023-06-26T13:53:44.066Z,100255.33
2023-06-26T13:58:47.089Z,100246.02
2023-06-26T14:03:50.170Z,100238.17
2023-06-26T14:08:53.105Z,100234.97
2023-06-26T14:13:57.324Z,100228.02
2023-06-26T14:19:00.158Z,100222.95
2023-06-26T14:24:06.290Z,100218.54
2023-06-26T14:29:09.461Z,100216.03
2023-06-26T14:34:13.053Z,100211.92
2023-06-26T14:39:19.392Z,100197.66
2023-06-26T14:44:22.998Z,100191.54
2023-06-26T14:49:26.620Z,100189.94
2023-06-26T14:54:29.613Z,100177.23
2023-06-26T14:59:32.632Z,100168.45
2023-06-26T15:04:36.957Z,100163.45
2023-06-26T15:09:40.042Z,100155.65
2023-06-26T15:14:45.301Z,100144.20
2023-06-26T15:19:48.967Z,100145.59
2023-06-26T15:24:55.416Z,100134.93
2023-06-26T15:29:59.635Z,100135.34
2023-06-26T15:35:02.598Z,100136.16
2023-06-26T15:40:06.657Z,100134.88
2023-06-26T15:45:12.625Z,100127.83
2023-06-26T15:50:15.619Z,100118.83
2023-06-26T15:55:18.556Z,100112.66
2023-06-26T16:00:22.047Z,100107.28
2023-06-26T16:05:26.246Z,100102.72
2023-06-26T16:10:30.595Z,100103.21
2023-06-26T16:15:33.521Z,100094.50
2023-06-26T16:20:36.756Z,100091.45
2023-06-26T16:25:58.841Z,100091.58
2023-06-26T16:31:02.304Z,100090.69
2023-06-26T16:36:13.144Z,100086.31
2023-06-26T16:41:19.103Z,100083.65
2023-06-26T16:46:22.360Z,100086.06
2023-06-26T16:51:25.355Z,100081.09
2023-06-26T16:56:31.756Z,100073.48
2023-06-26T17:01:36.087Z,100078.71
2023-06-26T17:06:39.216Z,100075.42
2023-06-26T17:11:42.941Z,100075.58
2023-06-26T17:16:48.987Z,100080.46
2023-06-26T17:21:53.342Z,100087.97
2023-06-26T17:27:16.483Z,100093.21
2023-06-26T17:32:22.249Z,100090.67
2023-06-26T17:37:27.897Z,100091.25
2023-06-26T17:42:30.856Z,100090.84
2023-06-26T17:47:33.882Z,100084.56
2023-06-26T17:52:37.154Z,100082.95
2023-06-26T17:57:40.496Z,100081.58
2023-06-26T18:02:43.635Z,100077.83
2023-06-26T18:08:03.059Z,100069.11
2023-06-26T18:13:07.256Z,100067.30
2023-06-26T18:18:10.238Z,100066.73
2023-06-26T18:23:14.520Z,100068.20
2023-06-26T18:28:17.632Z,100072.35
2023-06-26T18:33:23.460Z,100074.12
2023-06-26T18:38:28.106Z,100068.02
2023-06-26T18:43:33.649Z,100073.77
2023-06-26T18:48:37.899Z,100070.84
2023-06-26T18:53:42.516Z,100070.16
2023-06-26T18:58:48.360Z,100072.15
2023-06-26T19:03:53.656Z,100073.30
2023-06-26T19:08:56.756Z,100076.36
2023-06-26T19:13:59.846Z,100075.79
2023-06-26T19:19:03.444Z,100070.77
2023-06-26T19:24:06.511Z,100073.14
2023-06-26T19:29:09.364Z,100073.67
2023-06-26T19:34:12.413Z,100067.79
2023-06-26T19:39:15.694Z,100060.97
2023-06-26T19:44:18.994Z,100062.04
2023-06-26T19:49:22.096Z,100063.15
2023-06-26T19:54:27.434Z,100060.55
2023-06-26T19:59:33.333Z,100057.72
2023-06-26T20:04:37.069Z,100056.45
2023-06-26T20:09:39.991Z,100052.54
2023-06-26T20:14:42.948Z,100048.09
2023-06-26T20:19:45.984Z,100040.83
2023-06-26T20:24:48.980Z,100040.61
2023-06-26T20:29:51.847Z,100033.19
2023-06-26T20:34:55.163Z,100023.45
2023-06-26T20:39:58.487Z,100015.70
2023-06-26T20:45:01.897Z,100005.25
2023-06-26T20:50:09.687Z,100004.12
2023-06-26T20:55:13.251Z,100004.90
2023-06-26T21:00:16.988Z,100006.42
2023-06-26T21:05:19.925Z,100009.05
2023-06-26T21:10:22.895Z,100005.61
2023-06-26T21:15:25.905Z,100000.95
2023-06-26T21:20:28.890Z,100001.03
2023-06-26T21:25:31.950Z,99993.13
2023-06-26T21:30:35.353Z,99989.98
2023-06-26T21:35:43.499Z,99991.88
2023-06-26T21:40:47.636Z,99991.60
2023-06-26T21:45:50.587Z,99995.87
2023-06-26T21:50:55.876Z,100000.48
2023-06-26T21:56:00.256Z,100004.04
2023-06-26T22:07:07.136Z,100012.39
2023-06-26T22:12:10.924Z,100012.56
2023-06-26T22:17:13.906Z,100013.19
2023-06-26T22:22:16.776Z,100013.50
2023-06-26T22:27:19.903Z,100004.98
2023-06-26T22:32:22.962Z,100000.57
2023-06-26T22:37:26.076Z,99999.33
2023-06-26T22:42:29.215Z,99984.42
2023-06-26T22:47:32.733Z,99973.25
2023-06-26T22:52:35.618Z,99971.13
2023-06-26T22:57:39.114Z,99971.12
2023-06-26T23:02:42.080Z,99964.48
2023-06-26T23:07:45.238Z,99953.11
2023-06-26T23:12:48.275Z,99951.08
2023-06-26T23:17:51.251Z,99940.83
2023-06-26T23:22:54.250Z,99929.90
2023-06-26T23:28:02.079Z,99922.88
2023-06-26T23:33:07.010Z,99912.52
2023-06-26T23:38:10.208Z,99913.46
2023-06-26T23:43:15.296Z,99913.63
2023-06-26T23:48:18.234Z,99905.98
2023-06-26T23:53:21.146Z,99894.98
2023-06-26T23:58:24.072Z,99888.70
